Language selection

My Weather Profile Weather Topics  | 

Atlantic - Labrador: Past 24 Hour Conditions

 

Cartwright Airport

09:00 PM ADT 12 May 2021
Disclaimer

This table is a summary of hourly weather conditions for the past 24 hours.
Please note that these observations might not always be representative of weather conditions over their associated marine area.

Date / Time
(ADT)
Wind(knots) Conditions Visibility(km) Pressure(kPa) Air tempC) Relative humidity(%) Dew pointC)
12 May 2021
21:00 NNW 17 gust 29 Light Snow 3 100.7 1 96 0
20:00 NNW 18 gust 30 Light Snow 5 100.8 1 95 0
19:00 NNW 17 gust 28 Light Snow 3 100.8 1 96 0
18:00 NNW 21 gust 35 Light Snow 4 100.8 1 94 0
17:00 NNW 24 gust 39 Light Rain 6 100.8 1 94 0
16:00 N 20 gust 32 Light Snow 3 100.8 1 97 0
15:00 N 19 gust 29 Light Snow 3 100.9 1 97 1
14:00 N 19 gust 28 Light Rain 8 100.9 2 93 1
13:00 N 17 gust 26 Mist 10 100.9 2 91 1
12:00 N 16 gust 27 Mist 8 100.9 2 92 1
11:00 N 16 gust 24 Mist 6 101.0 2 94 1
10:00 NNE 13 gust 21 Light Rain 5 100.9 2 95 1
9:00 NNE 16 gust 24 Light Rain 6 100.9 2 97 2
8:00 NNE 14 gust 22 Light Rain 5 100.9 2 98 1
7:00 N 15 gust 23 Light Rain 5 100.9 1 98 1
6:00 N 17 gust 25 Light Rain 4 100.9 1 98 1
5:00 N 16 gust 25 Precipitation 5 100.9 1 97 1
4:00 N 18 gust 25 Precipitation 5 100.9 1 97 1
3:00 N 17 gust 26 Precipitation 4 100.9 1 98 1
2:00 N 15 gust 23 Precipitation 4 100.9 1 97 1
1:00 N 15 gust 24 Precipitation 4 101.0 1 97 1
0:00 N 13 gust 25 Light Rain 2 101.0 1 98 1
11 May 2021
23:00 N 15 gust 21 Light Rain 5 101.1 1 97 1
22:00 N 13 gust 19 Light Rain 6 101.1 1 96 1
21:00 N 14 gust 25 Mist 6 101.1 2 95 1

Zoom-in to make a selection

Map of Atlantic - Labrador marine weather areas Kangiqsualujjuaq Airport Cape Kakkiviak Cape Kiglapait Cartwright Airport CFB Goose Bay Hopedale Mary's Harbour Nain Airport Makkovik Airport Saglek Tukialik Bay
Legend:
buoy Buoy
land station Land Station

Atlantic - Labrador Area

Another Region

What we are doing

Date modified: